< < Back
Terminal Aerodrome Forecast


Current Version              Previous Versions:   1  2  3  4  5  6  7  8  9  

Terminal Aerodrome Forecast

601
FTUS44 KOHX 021500 AAA
TAFCSV
TAF AMD
KCSV 021510Z 0215/0312 27007KT P6SM SCT020
      TEMPO 0215/0217 BKN020
     FM022200 24005KT P6SM VCTS BKN040CB
     FM030400 20003KT P6SM BKN250
     FM030600 00000KT 4SM BR BKN250
     FM031000 00000KT 2SM BR SCT250=

Latest METAR

033
SAUS70 KWBC 021700 RRB
MTRCSV
METAR KCSV 021653Z AUTO 24008KT 180V280 10SM CLR 29/20 A3013 RMK AO2
SLP179 T02890200


USA.gov is the U.S. government's official web portal to all federal, state and local government web resources and services.